sensor_id;sensor_type;location;lat;lon;timestamp;pressure;altitude;pressure_sealevel;temperature;humidity
9444;BME280;4760;42.148;24.754;2022-07-03T00:10:39;99885.06;;;24.68;97.91
9444;BME280;4760;42.148;24.754;2022-07-03T00:25:46;99878.00;;;24.81;96.74
9444;BME280;4760;42.148;24.754;2022-07-03T00:50:46;99846.66;;;24.52;100.00
9444;BME280;4760;42.148;24.754;2022-07-03T01:25:09;99830.59;;;24.13;100.00
9444;BME280;4760;42.148;24.754;2022-07-03T01:40:39;99826.88;;;23.76;100.00
9444;BME280;4760;42.148;24.754;2022-07-03T01:55:47;99831.06;;;23.40;100.00
9444;BME280;4760;42.148;24.754;2022-07-03T02:11:02;99832.44;;;22.92;100.00
9444;BME280;4760;42.148;24.754;2022-07-03T02:20:04;99831.34;;;22.90;100.00
9444;BME280;4760;42.148;24.754;2022-07-03T02:25:48;99838.16;;;22.80;100.00
9444;BME280;4760;42.148;24.754;2022-07-03T02:41:00;99840.38;;;22.50;100.00
9444;BME280;4760;42.148;24.754;2022-07-03T02:56:11;99851.97;;;22.40;100.00
9444;BME280;4760;42.148;24.754;2022-07-03T03:26:50;99827.28;;;22.69;100.00
9444;BME280;4760;42.148;24.754;2022-07-03T03:36:39;99835.28;;;23.14;100.00
9444;BME280;4760;42.148;24.754;2022-07-03T03:46:30;99851.31;;;24.37;100.00
9444;BME280;4760;42.148;24.754;2022-07-03T03:56:18;99857.50;;;29.04;87.41
9444;BME280;4760;42.148;24.754;2022-07-03T04:06:08;99855.72;;;32.11;67.42
9444;BME280;4760;42.148;24.754;2022-07-03T04:16:20;99860.50;;;35.61;50.75
9444;BME280;4760;42.148;24.754;2022-07-03T04:26:10;99884.16;;;37.30;43.95
9444;BME280;4760;42.148;24.754;2022-07-03T04:36:23;99897.56;;;39.24;36.69
9444;BME280;4760;42.148;24.754;2022-07-03T04:46:37;99899.09;;;40.75;33.91
9444;BME280;4760;42.148;24.754;2022-07-03T04:56:26;99889.19;;;41.73;32.38
9444;BME280;4760;42.148;24.754;2022-07-03T05:06:14;99901.69;;;43.18;29.91
9444;BME280;4760;42.148;24.754;2022-07-03T05:16:28;99910.31;;;44.91;27.10
9444;BME280;4760;42.148;24.754;2022-07-03T05:40:35;99920.22;;;48.58;23.16
9444;BME280;4760;42.148;24.754;2022-07-03T06:00:37;99873.88;;;43.96;26.03
9444;BME280;4760;42.148;24.754;2022-07-03T06:10:26;99900.16;;;45.99;24.29
9444;BME280;4760;42.148;24.754;2022-07-03T06:35:44;99900.47;;;49.33;20.99
9444;BME280;4760;42.148;24.754;2022-07-03T06:50:50;99891.53;;;47.73;22.48
9444;BME280;4760;42.148;24.754;2022-07-03T07:10:07;99858.09;;;40.08;35.53
9444;BME280;4760;42.148;24.754;2022-07-03T07:20:20;99842.75;;;38.37;41.84
9444;BME280;4760;42.148;24.754;2022-07-03T07:30:10;99844.75;;;37.38;40.90
9444;BME280;4760;42.148;24.754;2022-07-03T07:40:23;99837.50;;;36.51;44.98
9444;BME280;4760;42.148;24.754;2022-07-03T07:50:13;99827.34;;;36.24;48.34
9444;BME280;4760;42.148;24.754;2022-07-03T08:00:29;99830.22;;;35.47;48.54
9444;BME280;4760;42.148;24.754;2022-07-03T08:10:44;99830.41;;;34.98;48.56
9444;BME280;4760;42.148;24.754;2022-07-03T08:20:32;99816.78;;;35.04;50.05
9444;BME280;4760;42.148;24.754;2022-07-03T08:44:39;99832.06;;;34.75;48.21
9444;BME280;4760;42.148;24.754;2022-07-03T08:54:29;99832.97;;;34.16;49.18
9444;BME280;4760;42.148;24.754;2022-07-03T09:04:19;99823.22;;;34.30;45.00
9444;BME280;4760;42.148;24.754;2022-07-03T09:07:11;99827.78;;;34.38;41.32
9444;BME280;4760;42.148;24.754;2022-07-03T09:21:06;99826.09;;;34.49;37.85
9444;BME280;4760;42.148;24.754;2022-07-03T09:34:41;99801.88;;;33.47;40.78
9444;BME280;4760;42.148;24.754;2022-07-03T09:44:32;99798.06;;;33.33;42.73
9444;BME280;4760;42.148;24.754;2022-07-03T09:54:21;99791.16;;;34.07;43.17
9444;BME280;4760;42.148;24.754;2022-07-03T10:04:13;99783.63;;;33.50;41.87
9444;BME280;4760;42.148;24.754;2022-07-03T10:14:03;99772.59;;;33.35;42.67
9444;BME280;4760;42.148;24.754;2022-07-03T10:23:29;99761.25;;;32.83;45.74
9444;BME280;4760;42.148;24.754;2022-07-03T10:47:43;99733.34;;;32.54;44.03
9444;BME280;4760;42.148;24.754;2022-07-03T10:57:31;99742.25;;;32.45;44.63
9444;BME280;4760;42.148;24.754;2022-07-03T11:07:20;99717.38;;;32.81;48.86
9444;BME280;4760;42.148;24.754;2022-07-03T11:41:44;99706.03;;;33.05;45.48
9444;BME280;4760;42.148;24.754;2022-07-03T11:51:07;99687.00;;;32.83;46.02
9444;BME280;4760;42.148;24.754;2022-07-03T12:26:13;99654.63;;;33.05;45.32
9444;BME280;4760;42.148;24.754;2022-07-03T12:36:05;99658.44;;;32.83;45.39
9444;BME280;4760;42.148;24.754;2022-07-03T12:45:11;99663.22;;;32.70;45.69
9444;BME280;4760;42.148;24.754;2022-07-03T12:55:23;99646.44;;;32.90;46.82
9444;BME280;4760;42.148;24.754;2022-07-03T13:20:09;99618.88;;;32.63;47.44
9444;BME280;4760;42.148;24.754;2022-07-03T13:30:23;99616.56;;;32.62;45.91
9444;BME280;4760;42.148;24.754;2022-07-03T13:54:22;99605.56;;;32.71;42.05
9444;BME280;4760;42.148;24.754;2022-07-03T14:04:13;99599.06;;;32.71;42.66
9444;BME280;4760;42.148;24.754;2022-07-03T14:14:03;99589.81;;;32.94;43.10
9444;BME280;4760;42.148;24.754;2022-07-03T14:24:19;99588.00;;;32.62;43.96
9444;BME280;4760;42.148;24.754;2022-07-03T14:34:09;99584.66;;;32.57;43.14
9444;BME280;4760;42.148;24.754;2022-07-03T14:44:24;99570.28;;;32.69;41.50
9444;BME280;4760;42.148;24.754;2022-07-03T15:11:52;99540.69;;;32.36;42.17
9444;BME280;4760;42.148;24.754;2022-07-03T15:26:13;99544.19;;;33.13;41.57
9444;BME280;4760;42.148;24.754;2022-07-03T15:36:05;99545.66;;;33.44;41.34
9444;BME280;4760;42.148;24.754;2022-07-03T15:46:31;99547.47;;;33.23;41.60
9444;BME280;4760;42.148;24.754;2022-07-03T16:00:15;99537.81;;;32.72;43.20
9444;BME280;4760;42.148;24.754;2022-07-03T16:10:04;99540.78;;;32.55;44.71
9444;BME280;4760;42.148;24.754;2022-07-03T16:20:18;99551.84;;;32.34;44.56
9444;BME280;4760;42.148;24.754;2022-07-03T16:30:08;99547.75;;;32.65;42.96
9444;BME280;4760;42.148;24.754;2022-07-03T16:40:25;99556.38;;;32.84;42.96
9444;BME280;4760;42.148;24.754;2022-07-03T16:50:17;99549.41;;;32.49;43.50
9444;BME280;4760;42.148;24.754;2022-07-03T17:14:23;99565.78;;;32.02;46.84
9444;BME280;4760;42.148;24.754;2022-07-03T17:27:56;99569.09;;;31.65;50.31
9444;BME280;4760;42.148;24.754;2022-07-03T17:38:12;99589.41;;;31.29;51.87
9444;BME280;4760;42.148;24.754;2022-07-03T17:48:02;99598.19;;;30.42;55.20
9444;BME280;4760;42.148;24.754;2022-07-03T17:58:19;99604.31;;;29.90;58.26
9444;BME280;4760;42.148;24.754;2022-07-03T18:08:11;99621.13;;;29.46;61.26
9444;BME280;4760;42.148;24.754;2022-07-03T18:11:05;99623.09;;;29.28;60.91
9444;BME280;4760;42.148;24.754;2022-07-03T18:27:55;99648.16;;;28.98;62.86
9444;BME280;4760;42.148;24.754;2022-07-03T18:38:09;99639.25;;;28.60;61.07
9444;BME280;4760;42.148;24.754;2022-07-03T18:48:23;99653.94;;;28.32;60.47
9444;BME280;4760;42.148;24.754;2022-07-03T18:58:14;99666.09;;;28.13;61.92
9444;BME280;4760;42.148;24.754;2022-07-03T19:08:09;99637.44;;;27.90;62.17
9444;BME280;4760;42.148;24.754;2022-07-03T19:18:02;99662.47;;;27.72;63.08
9444;BME280;4760;42.148;24.754;2022-07-03T19:27:53;99677.41;;;27.52;64.05
9444;BME280;4760;42.148;24.754;2022-07-03T19:37:42;99668.56;;;27.15;64.89
9444;BME280;4760;42.148;24.754;2022-07-03T19:47:31;99677.09;;;26.86;66.77
9444;BME280;4760;42.148;24.754;2022-07-03T19:53:39;99696.91;;;26.86;64.30
9444;BME280;4760;42.148;24.754;2022-07-03T20:03:29;99707.56;;;26.52;62.12
9444;BME280;4760;42.148;24.754;2022-07-03T20:13:18;99687.69;;;26.08;60.69
9444;BME280;4760;42.148;24.754;2022-07-03T20:23:07;99713.28;;;25.81;62.05
9444;BME280;4760;42.148;24.754;2022-07-03T20:32:55;99716.88;;;25.58;61.61
9444;BME280;4760;42.148;24.754;2022-07-03T20:43:16;99715.66;;;25.41;57.78
9444;BME280;4760;42.148;24.754;2022-07-03T20:53:08;99726.38;;;25.27;57.05
9444;BME280;4760;42.148;24.754;2022-07-03T21:03:24;99730.97;;;25.16;58.53
9444;BME280;4760;42.148;24.754;2022-07-03T21:13:15;99709.28;;;24.89;59.17
9444;BME280;4760;42.148;24.754;2022-07-03T21:23:08;99743.44;;;24.64;59.98
9444;BME280;4760;42.148;24.754;2022-07-03T21:33:22;99748.94;;;24.22;61.55
9444;BME280;4760;42.148;24.754;2022-07-03T21:43:11;99745.28;;;24.03;61.44
9444;BME280;4760;42.148;24.754;2022-07-03T21:53:26;99739.78;;;23.90;62.73
9444;BME280;4760;42.148;24.754;2022-07-03T22:03:16;99745.38;;;23.81;63.13
9444;BME280;4760;42.148;24.754;2022-07-03T22:13:07;99753.31;;;23.65;65.05
9444;BME280;4760;42.148;24.754;2022-07-03T22:23:22;99754.22;;;23.52;65.73
9444;BME280;4760;42.148;24.754;2022-07-03T22:33:36;99738.38;;;23.15;68.64
9444;BME280;4760;42.148;24.754;2022-07-03T22:43:26;99700.94;;;22.31;72.47
9444;BME280;4760;42.148;24.754;2022-07-03T22:53:41;99745.31;;;22.36;71.58
9444;BME280;4760;42.148;24.754;2022-07-03T23:03:31;99753.34;;;22.25;72.62
9444;BME280;4760;42.148;24.754;2022-07-03T23:13:43;99742.38;;;22.40;71.56
9444;BME280;4760;42.148;24.754;2022-07-03T23:23:32;99757.16;;;22.53;71.36
9444;BME280;4760;42.148;24.754;2022-07-03T23:33:21;99756.84;;;22.51;73.09
9444;BME280;4760;42.148;24.754;2022-07-03T23:43:12;99771.06;;;22.69;74.28
9444;BME280;4760;42.148;24.754;2022-07-03T23:53:07;99759.69;;;22.73;74.97
